sensor_id;sensor_type;location;lat;lon;timestamp;pressure;altitude;pressure_sealevel;temperature;humidity
54389;BME280;40975;50.390;8.640;2022-11-04T00:01:28;97851.41;;;9.73;100.00
54389;BME280;40975;50.390;8.640;2022-11-04T00:03:53;97857.53;;;9.73;100.00
54389;BME280;40975;50.390;8.640;2022-11-04T00:06:19;97863.50;;;9.75;100.00
54389;BME280;40975;50.390;8.640;2022-11-04T00:08:52;97858.84;;;9.77;100.00
54389;BME280;40975;50.390;8.640;2022-11-04T00:11:18;97860.47;;;9.78;100.00
54389;BME280;40975;50.390;8.640;2022-11-04T00:14:03;97865.63;;;9.80;100.00
54389;BME280;40975;50.390;8.640;2022-11-04T00:16:29;97865.78;;;9.78;100.00
54389;BME280;40975;50.390;8.640;2022-11-04T00:19:13;97873.56;;;9.80;100.00
54389;BME280;40975;50.390;8.640;2022-11-04T00:21:38;97888.63;;;9.79;100.00
54389;BME280;40975;50.390;8.640;2022-11-04T00:24:22;97886.63;;;9.82;100.00
54389;BME280;40975;50.390;8.640;2022-11-04T00:27:16;97896.44;;;9.81;100.00
54389;BME280;40975;50.390;8.640;2022-11-04T00:30:02;97908.97;;;9.87;100.00
54389;BME280;40975;50.390;8.640;2022-11-04T00:32:30;97907.16;;;9.88;100.00
54389;BME280;40975;50.390;8.640;2022-11-04T00:35:14;97898.69;;;9.92;100.00
54389;BME280;40975;50.390;8.640;2022-11-04T00:37:41;97896.38;;;9.89;100.00
54389;BME280;40975;50.390;8.640;2022-11-04T00:40:09;97898.53;;;9.94;100.00
54389;BME280;40975;50.390;8.640;2022-11-04T00:42:34;97889.72;;;9.93;100.00
54389;BME280;40975;50.390;8.640;2022-11-04T00:45:00;97885.59;;;9.91;100.00
54389;BME280;40975;50.390;8.640;2022-11-04T00:47:25;97888.44;;;9.89;100.00
54389;BME280;40975;50.390;8.640;2022-11-04T00:49:51;97886.13;;;9.86;100.00
54389;BME280;40975;50.390;8.640;2022-11-04T00:52:16;97884.47;;;9.85;100.00
54389;BME280;40975;50.390;8.640;2022-11-04T00:54:42;97878.34;;;9.85;100.00
54389;BME280;40975;50.390;8.640;2022-11-04T00:57:09;97881.19;;;9.83;100.00
54389;BME280;40975;50.390;8.640;2022-11-04T00:59:34;97882.34;;;9.80;100.00
54389;BME280;40975;50.390;8.640;2022-11-04T01:02:00;97883.00;;;9.83;100.00
54389;BME280;40975;50.390;8.640;2022-11-04T01:04:25;97878.69;;;9.82;100.00
54389;BME280;40975;50.390;8.640;2022-11-04T01:06:51;97883.84;;;9.83;100.00
54389;BME280;40975;50.390;8.640;2022-11-04T01:09:16;97881.53;;;9.80;100.00
54389;BME280;40975;50.390;8.640;2022-11-04T01:11:41;97887.47;;;9.82;100.00
54389;BME280;40975;50.390;8.640;2022-11-04T01:14:07;97887.63;;;9.80;100.00
54389;BME280;40975;50.390;8.640;2022-11-04T01:16:33;97898.41;;;9.79;100.00
54389;BME280;40975;50.390;8.640;2022-11-04T01:18:58;97891.78;;;9.75;100.00
54389;BME280;40975;50.390;8.640;2022-11-04T01:21:24;97895.28;;;9.75;100.00
54389;BME280;40975;50.390;8.640;2022-11-04T01:23:49;97909.03;;;9.71;100.00
54389;BME280;40975;50.390;8.640;2022-11-04T01:26:18;97919.13;;;9.75;100.00
54389;BME280;40975;50.390;8.640;2022-11-04T01:28:44;97922.44;;;9.77;100.00
54389;BME280;40975;50.390;8.640;2022-11-04T01:31:15;97923.59;;;9.75;100.00
54389;BME280;40975;50.390;8.640;2022-11-04T01:33:41;97928.88;;;9.75;100.00
54389;BME280;40975;50.390;8.640;2022-11-04T01:36:08;97912.19;;;9.74;100.00
54389;BME280;40975;50.390;8.640;2022-11-04T01:38:34;97913.00;;;9.75;100.00
54389;BME280;40975;50.390;8.640;2022-11-04T01:41:00;97925.41;;;9.74;100.00
54389;BME280;40975;50.390;8.640;2022-11-04T01:46:13;97938.34;;;9.69;100.00
54389;BME280;40975;50.390;8.640;2022-11-04T01:48:41;97944.66;;;9.68;100.00
54389;BME280;40975;50.390;8.640;2022-11-04T01:51:07;97939.69;;;9.65;100.00
54389;BME280;40975;50.390;8.640;2022-11-04T01:53:36;97933.03;;;9.69;100.00
54389;BME280;40975;50.390;8.640;2022-11-04T01:56:08;97938.34;;;9.69;100.00
54389;BME280;40975;50.390;8.640;2022-11-04T01:58:40;97938.69;;;9.66;100.00
54389;BME280;40975;50.390;8.640;2022-11-04T02:01:09;97947.94;;;9.70;100.00
54389;BME280;40975;50.390;8.640;2022-11-04T02:03:39;97950.78;;;9.69;100.00
54389;BME280;40975;50.390;8.640;2022-11-04T02:06:07;97962.53;;;9.66;100.00
54389;BME280;40975;50.390;8.640;2022-11-04T02:08:34;97965.53;;;9.63;100.00
54389;BME280;40975;50.390;8.640;2022-11-04T02:11:02;97966.50;;;9.62;100.00
54389;BME280;40975;50.390;8.640;2022-11-04T02:13:30;97949.94;;;9.60;100.00
54389;BME280;40975;50.390;8.640;2022-11-04T02:16:23;97948.69;;;9.47;100.00
54389;BME280;40975;50.390;8.640;2022-11-04T02:22:29;97944.72;;;9.35;100.00
54389;BME280;40975;50.390;8.640;2022-11-04T02:28:14;97932.13;;;9.21;100.00
54389;BME280;40975;50.390;8.640;2022-11-04T02:31:02;97946.72;;;9.16;100.00
54389;BME280;40975;50.390;8.640;2022-11-04T02:33:40;97946.72;;;9.08;100.00
54389;BME280;40975;50.390;8.640;2022-11-04T02:36:34;97953.34;;;9.04;100.00
54389;BME280;40975;50.390;8.640;2022-11-04T02:42:23;97956.97;;;9.03;100.00
54389;BME280;40975;50.390;8.640;2022-11-04T02:47:36;97943.75;;;8.95;100.00
54389;BME280;40975;50.390;8.640;2022-11-04T02:50:13;97948.38;;;8.93;100.00
54389;BME280;40975;50.390;8.640;2022-11-04T02:53:01;97952.97;;;8.91;100.00
54389;BME280;40975;50.390;8.640;2022-11-04T02:55:42;97950.69;;;8.88;100.00
54389;BME280;40975;50.390;8.640;2022-11-04T02:58:13;97967.56;;;8.86;100.00
54389;BME280;40975;50.390;8.640;2022-11-04T03:00:41;97954.81;;;8.82;100.00
54389;BME280;40975;50.390;8.640;2022-11-04T03:03:14;97957.97;;;8.77;100.00
54389;BME280;40975;50.390;8.640;2022-11-04T03:05:45;97963.75;;;8.73;100.00
54389;BME280;40975;50.390;8.640;2022-11-04T03:08:17;97973.16;;;8.75;100.00
54389;BME280;40975;50.390;8.640;2022-11-04T03:10:52;97979.59;;;8.73;100.00
54389;BME280;40975;50.390;8.640;2022-11-04T03:13:23;97995.31;;;8.74;100.00
54389;BME280;40975;50.390;8.640;2022-11-04T03:15:54;97993.16;;;8.69;100.00
54389;BME280;40975;50.390;8.640;2022-11-04T03:18:22;97993.16;;;8.69;100.00
54389;BME280;40975;50.390;8.640;2022-11-04T03:20:55;97998.09;;;8.64;100.00
54389;BME280;40975;50.390;8.640;2022-11-04T03:23:22;98003.53;;;8.63;100.00
54389;BME280;40975;50.390;8.640;2022-11-04T03:25:50;97996.78;;;8.60;100.00
54389;BME280;40975;50.390;8.640;2022-11-04T03:28:43;97991.47;;;8.60;100.00
54389;BME280;40975;50.390;8.640;2022-11-04T03:31:11;98000.72;;;8.56;100.00
54389;BME280;40975;50.390;8.640;2022-11-04T03:33:42;98004.81;;;8.50;100.00
54389;BME280;40975;50.390;8.640;2022-11-04T03:36:11;98002.63;;;8.46;100.00
54389;BME280;40975;50.390;8.640;2022-11-04T03:38:36;97998.00;;;8.39;100.00
54389;BME280;40975;50.390;8.640;2022-11-04T03:41:07;98005.56;;;8.34;100.00
54389;BME280;40975;50.390;8.640;2022-11-04T03:43:34;98007.22;;;8.35;100.00
54389;BME280;40975;50.390;8.640;2022-11-04T03:45:59;97998.97;;;8.30;100.00
54389;BME280;40975;50.390;8.640;2022-11-04T03:48:25;98016.78;;;8.28;100.00
54389;BME280;40975;50.390;8.640;2022-11-04T03:50:50;98035.28;;;8.28;100.00
54389;BME280;40975;50.390;8.640;2022-11-04T03:53:18;98024.22;;;8.24;100.00
54389;BME280;40975;50.390;8.640;2022-11-04T03:56:07;98033.81;;;8.25;100.00
54389;BME280;40975;50.390;8.640;2022-11-04T03:58:44;98035.09;;;8.21;100.00
54389;BME280;40975;50.390;8.640;2022-11-04T04:04:20;98031.44;;;8.14;100.00
54389;BME280;40975;50.390;8.640;2022-11-04T04:06:49;98039.19;;;8.16;100.00
54389;BME280;40975;50.390;8.640;2022-11-04T04:09:25;98033.09;;;8.15;100.00
54389;BME280;40975;50.390;8.640;2022-11-04T04:12:01;98023.97;;;8.09;100.00
54389;BME280;40975;50.390;8.640;2022-11-04T04:14:34;98032.41;;;8.13;100.00
54389;BME280;40975;50.390;8.640;2022-11-04T04:17:18;98031.63;;;8.21;100.00
54389;BME280;40975;50.390;8.640;2022-11-04T04:19:51;98035.56;;;8.17;100.00
54389;BME280;40975;50.390;8.640;2022-11-04T04:22:22;98037.22;;;8.18;100.00
54389;BME280;40975;50.390;8.640;2022-11-04T04:24:49;98058.84;;;8.13;100.00
54389;BME280;40975;50.390;8.640;2022-11-04T04:27:35;98066.25;;;8.09;100.00
54389;BME280;40975;50.390;8.640;2022-11-04T04:30:05;98061.59;;;8.03;100.00
54389;BME280;40975;50.390;8.640;2022-11-04T04:32:36;98060.41;;;7.98;100.00
54389;BME280;40975;50.390;8.640;2022-11-04T04:35:05;98068.66;;;7.94;100.00
54389;BME280;40975;50.390;8.640;2022-11-04T04:37:51;98055.22;;;7.88;100.00
54389;BME280;40975;50.390;8.640;2022-11-04T04:40:19;98046.63;;;7.86;100.00
54389;BME280;40975;50.390;8.640;2022-11-04T04:43:13;98052.03;;;7.76;100.00
54389;BME280;40975;50.390;8.640;2022-11-04T04:45:58;98060.03;;;7.66;100.00
54389;BME280;40975;50.390;8.640;2022-11-04T04:48:25;98077.94;;;7.54;100.00
54389;BME280;40975;50.390;8.640;2022-11-04T04:50:52;98077.81;;;7.38;100.00
54389;BME280;40975;50.390;8.640;2022-11-04T04:53:21;98062.72;;;7.30;100.00
54389;BME280;40975;50.390;8.640;2022-11-04T04:55:47;98062.13;;;7.18;100.00
54389;BME280;40975;50.390;8.640;2022-11-04T04:58:12;98076.00;;;7.02;100.00
54389;BME280;40975;50.390;8.640;2022-11-04T05:00:37;98070.59;;;6.94;100.00
54389;BME280;40975;50.390;8.640;2022-11-04T05:03:03;98082.91;;;6.85;100.00
54389;BME280;40975;50.390;8.640;2022-11-04T05:05:28;98077.66;;;6.75;100.00
54389;BME280;40975;50.390;8.640;2022-11-04T05:07:53;98074.13;;;6.66;100.00
54389;BME280;40975;50.390;8.640;2022-11-04T05:10:19;98061.66;;;6.59;100.00
54389;BME280;40975;50.390;8.640;2022-11-04T05:12:44;98055.78;;;6.47;100.00
54389;BME280;40975;50.390;8.640;2022-11-04T05:15:29;98057.75;;;6.35;100.00
54389;BME280;40975;50.390;8.640;2022-11-04T05:18:01;98060.81;;;6.30;100.00
54389;BME280;40975;50.390;8.640;2022-11-04T05:20:27;98066.53;;;6.26;100.00
54389;BME280;40975;50.390;8.640;2022-11-04T05:22:58;98056.44;;;6.21;100.00
54389;BME280;40975;50.390;8.640;2022-11-04T05:25:23;98050.88;;;6.24;100.00
54389;BME280;40975;50.390;8.640;2022-11-04T05:27:49;98056.72;;;6.18;100.00
54389;BME280;40975;50.390;8.640;2022-11-04T05:30:14;98052.97;;;6.20;100.00
54389;BME280;40975;50.390;8.640;2022-11-04T05:32:39;98060.88;;;6.20;100.00
54389;BME280;40975;50.390;8.640;2022-11-04T05:35:05;98059.06;;;6.21;100.00
54389;BME280;40975;50.390;8.640;2022-11-04T05:37:30;98062.38;;;6.23;100.00
54389;BME280;40975;50.390;8.640;2022-11-04T05:39:56;98067.00;;;6.11;100.00
54389;BME280;40975;50.390;8.640;2022-11-04T05:42:21;98075.34;;;6.06;100.00
54389;BME280;40975;50.390;8.640;2022-11-04T05:44:46;98074.13;;;6.01;100.00
54389;BME280;40975;50.390;8.640;2022-11-04T05:47:12;98077.84;;;5.98;100.00
54389;BME280;40975;50.390;8.640;2022-11-04T05:49:37;98083.94;;;5.89;100.00
54389;BME280;40975;50.390;8.640;2022-11-04T05:52:02;98075.91;;;5.90;100.00
54389;BME280;40975;50.390;8.640;2022-11-04T05:54:27;98074.94;;;5.82;100.00
54389;BME280;40975;50.390;8.640;2022-11-04T05:56:53;98075.66;;;5.74;100.00
54389;BME280;40975;50.390;8.640;2022-11-04T05:59:18;98071.38;;;5.73;100.00
54389;BME280;40975;50.390;8.640;2022-11-04T06:01:44;98063.75;;;5.70;100.00
54389;BME280;40975;50.390;8.640;2022-11-04T06:04:13;98067.50;;;5.67;100.00
54389;BME280;40975;50.390;8.640;2022-11-04T06:06:39;98064.03;;;5.67;100.00
54389;BME280;40975;50.390;8.640;2022-11-04T06:09:04;98063.91;;;5.68;100.00
54389;BME280;40975;50.390;8.640;2022-11-04T06:11:31;98067.25;;;5.60;100.00
54389;BME280;40975;50.390;8.640;2022-11-04T06:13:57;98063.91;;;5.68;100.00
54389;BME280;40975;50.390;8.640;2022-11-04T06:16:23;98071.66;;;5.70;100.00
54389;BME280;40975;50.390;8.640;2022-11-04T06:18:49;98076.66;;;5.73;100.00
54389;BME280;40975;50.390;8.640;2022-11-04T06:23:41;98079.41;;;5.71;100.00
54389;BME280;40975;50.390;8.640;2022-11-04T06:26:07;98072.06;;;5.65;100.00
54389;BME280;40975;50.390;8.640;2022-11-04T06:28:32;98065.41;;;5.61;100.00
54389;BME280;40975;50.390;8.640;2022-11-04T06:30:59;98069.06;;;5.50;100.00
54389;BME280;40975;50.390;8.640;2022-11-04T06:33:26;98073.19;;;5.53;100.00
54389;BME280;40975;50.390;8.640;2022-11-04T06:35:56;98068.22;;;5.59;100.00
54389;BME280;40975;50.390;8.640;2022-11-04T06:38:21;98068.59;;;5.65;100.00
54389;BME280;40975;50.390;8.640;2022-11-04T06:40:47;98075.53;;;5.66;100.00
54389;BME280;40975;50.390;8.640;2022-11-04T06:43:12;98080.53;;;5.69;100.00
54389;BME280;40975;50.390;8.640;2022-11-04T06:45:37;98088.53;;;5.77;100.00
54389;BME280;40975;50.390;8.640;2022-11-04T06:48:03;98093.09;;;5.85;100.00
54389;BME280;40975;50.390;8.640;2022-11-04T06:50:28;98083.81;;;5.81;100.00
54389;BME280;40975;50.390;8.640;2022-11-04T06:52:54;98081.59;;;5.86;100.00
54389;BME280;40975;50.390;8.640;2022-11-04T06:55:19;98086.72;;;5.87;100.00
54389;BME280;40975;50.390;8.640;2022-11-04T06:57:44;98096.88;;;5.82;100.00
54389;BME280;40975;50.390;8.640;2022-11-04T07:00:10;98109.06;;;5.83;100.00
54389;BME280;40975;50.390;8.640;2022-11-04T07:02:36;98120.25;;;5.85;100.00
54389;BME280;40975;50.390;8.640;2022-11-04T07:05:02;98124.97;;;5.82;100.00
54389;BME280;40975;50.390;8.640;2022-11-04T07:07:29;98121.81;;;5.78;100.00
54389;BME280;40975;50.390;8.640;2022-11-04T07:09:54;98116.25;;;5.81;100.00
54389;BME280;40975;50.390;8.640;2022-11-04T07:12:19;98121.22;;;5.84;100.00
54389;BME280;40975;50.390;8.640;2022-11-04T07:14:46;98119.59;;;5.83;100.00
54389;BME280;40975;50.390;8.640;2022-11-04T07:17:12;98114.03;;;5.86;100.00
54389;BME280;40975;50.390;8.640;2022-11-04T07:19:37;98123.72;;;5.96;100.00
54389;BME280;40975;50.390;8.640;2022-11-04T07:22:02;98121.38;;;6.02;100.00
54389;BME280;40975;50.390;8.640;2022-11-04T07:24:28;98127.06;;;6.07;100.00
54389;BME280;40975;50.390;8.640;2022-11-04T07:26:53;98134.22;;;6.15;100.00
54389;BME280;40975;50.390;8.640;2022-11-04T07:29:19;98136.31;;;6.21;100.00
54389;BME280;40975;50.390;8.640;2022-11-04T07:31:45;98124.06;;;6.30;100.00
54389;BME280;40975;50.390;8.640;2022-11-04T07:34:10;98144.16;;;6.41;100.00
54389;BME280;40975;50.390;8.640;2022-11-04T07:36:35;98148.41;;;6.52;100.00
54389;BME280;40975;50.390;8.640;2022-11-04T07:39:01;98147.41;;;6.63;100.00
54389;BME280;40975;50.390;8.640;2022-11-04T07:41:27;98154.19;;;6.65;100.00
54389;BME280;40975;50.390;8.640;2022-11-04T07:43:53;98153.84;;;6.78;100.00
54389;BME280;40975;50.390;8.640;2022-11-04T07:46:19;98152.28;;;6.85;100.00
54389;BME280;40975;50.390;8.640;2022-11-04T07:48:45;98152.09;;;6.97;100.00
54389;BME280;40975;50.390;8.640;2022-11-04T07:51:13;98154.53;;;7.08;100.00
54389;BME280;40975;50.390;8.640;2022-11-04T07:53:40;98151.53;;;7.21;100.00
54389;BME280;40975;50.390;8.640;2022-11-04T07:56:07;98157.56;;;7.31;100.00
54389;BME280;40975;50.390;8.640;2022-11-04T07:58:36;98164.06;;;7.37;100.00
54389;BME280;40975;50.390;8.640;2022-11-04T08:01:08;98170.72;;;7.41;100.00
54389;BME280;40975;50.390;8.640;2022-11-04T08:03:34;98168.59;;;7.45;100.00
54389;BME280;40975;50.390;8.640;2022-11-04T08:06:03;98180.91;;;7.54;100.00
54389;BME280;40975;50.390;8.640;2022-11-04T08:08:29;98174.34;;;7.58;100.00
54389;BME280;40975;50.390;8.640;2022-11-04T08:10:57;98161.44;;;7.55;100.00
54389;BME280;40975;50.390;8.640;2022-11-04T08:13:26;98169.16;;;7.67;100.00
54389;BME280;40975;50.390;8.640;2022-11-04T08:15:52;98169.06;;;7.76;100.00
54389;BME280;40975;50.390;8.640;2022-11-04T08:18:18;98165.94;;;7.81;100.00
54389;BME280;40975;50.390;8.640;2022-11-04T08:20:48;98161.50;;;7.82;100.00
54389;BME280;40975;50.390;8.640;2022-11-04T08:23:15;98174.72;;;7.82;100.00
54389;BME280;40975;50.390;8.640;2022-11-04T08:25:40;98152.00;;;7.89;100.00
54389;BME280;40975;50.390;8.640;2022-11-04T08:28:06;98167.31;;;8.03;100.00
54389;BME280;40975;50.390;8.640;2022-11-04T08:30:31;98178.44;;;8.15;100.00
54389;BME280;40975;50.390;8.640;2022-11-04T08:32:56;98178.66;;;8.22;100.00
54389;BME280;40975;50.390;8.640;2022-11-04T08:35:22;98178.25;;;8.35;100.00
54389;BME280;40975;50.390;8.640;2022-11-04T08:37:47;98179.75;;;8.37;100.00
54389;BME280;40975;50.390;8.640;2022-11-04T08:40:12;98184.41;;;8.44;100.00
54389;BME280;40975;50.390;8.640;2022-11-04T08:42:38;98173.03;;;8.69;100.00
54389;BME280;40975;50.390;8.640;2022-11-04T08:45:03;98171.09;;;8.80;100.00
54389;BME280;40975;50.390;8.640;2022-11-04T08:47:29;98178.81;;;9.08;100.00
54389;BME280;40975;50.390;8.640;2022-11-04T08:49:54;98167.31;;;9.42;100.00
54389;BME280;40975;50.390;8.640;2022-11-04T08:52:19;98166.50;;;9.49;100.00
54389;BME280;40975;50.390;8.640;2022-11-04T08:54:45;98162.03;;;9.67;100.00
54389;BME280;40975;50.390;8.640;2022-11-04T08:57:10;98164.56;;;9.85;100.00
54389;BME280;40975;50.390;8.640;2022-11-04T08:59:35;98165.03;;;9.96;100.00
54389;BME280;40975;50.390;8.640;2022-11-04T09:02:01;98156.78;;;9.91;100.00
54389;BME280;40975;50.390;8.640;2022-11-04T09:04:26;98169.97;;;10.24;100.00
54389;BME280;40975;50.390;8.640;2022-11-04T09:06:51;98151.78;;;10.21;100.00
54389;BME280;40975;50.390;8.640;2022-11-04T09:09:20;98167.00;;;10.36;100.00
54389;BME280;40975;50.390;8.640;2022-11-04T09:11:46;98166.69;;;10.31;100.00
54389;BME280;40975;50.390;8.640;2022-11-04T09:14:12;98171.00;;;10.15;100.00
54389;BME280;40975;50.390;8.640;2022-11-04T09:16:38;98170.81;;;10.08;100.00
54389;BME280;40975;50.390;8.640;2022-11-04T09:19:04;98172.34;;;10.03;100.00
54389;BME280;40975;50.390;8.640;2022-11-04T09:21:29;98168.34;;;9.99;100.00
54389;BME280;40975;50.390;8.640;2022-11-04T09:23:55;98178.44;;;9.78;100.00
54389;BME280;40975;50.390;8.640;2022-11-04T09:26:21;98191.03;;;9.68;100.00
54389;BME280;40975;50.390;8.640;2022-11-04T09:28:47;98181.41;;;9.59;100.00
54389;BME280;40975;50.390;8.640;2022-11-04T09:31:15;98186.88;;;9.57;100.00
54389;BME280;40975;50.390;8.640;2022-11-04T09:33:41;98187.38;;;9.53;100.00
54389;BME280;40975;50.390;8.640;2022-11-04T09:36:07;98186.88;;;9.49;100.00
54389;BME280;40975;50.390;8.640;2022-11-04T09:38:36;98184.03;;;9.51;100.00
54389;BME280;40975;50.390;8.640;2022-11-04T09:41:08;98186.38;;;9.45;100.00
54389;BME280;40975;50.390;8.640;2022-11-04T09:43:52;98188.03;;;9.63;100.00
54389;BME280;40975;50.390;8.640;2022-11-04T09:46:22;98176.63;;;9.71;100.00
54389;BME280;40975;50.390;8.640;2022-11-04T09:48:50;98180.44;;;10.09;100.00
54389;BME280;40975;50.390;8.640;2022-11-04T09:51:19;98182.56;;;10.55;100.00
54389;BME280;40975;50.390;8.640;2022-11-04T09:53:48;98182.66;;;11.50;100.00
54389;BME280;40975;50.390;8.640;2022-11-04T09:56:20;98193.22;;;11.66;100.00
54389;BME280;40975;50.390;8.640;2022-11-04T09:58:46;98191.09;;;12.77;100.00
54389;BME280;40975;50.390;8.640;2022-11-04T10:09:38;98189.81;;;12.19;100.00
54389;BME280;40975;50.390;8.640;2022-11-04T10:12:15;98192.97;;;11.76;100.00
54389;BME280;40975;50.390;8.640;2022-11-04T10:23:42;98201.41;;;11.25;100.00
54389;BME280;40975;50.390;8.640;2022-11-04T10:29:05;98188.44;;;10.91;100.00
54389;BME280;40975;50.390;8.640;2022-11-04T10:31:36;98185.38;;;11.10;100.00
54389;BME280;40975;50.390;8.640;2022-11-04T10:34:10;98185.44;;;11.33;100.00
54389;BME280;40975;50.390;8.640;2022-11-04T10:36:39;98174.06;;;12.18;100.00
54389;BME280;40975;50.390;8.640;2022-11-04T10:39:14;98171.94;;;13.33;100.00
54389;BME280;40975;50.390;8.640;2022-11-04T10:41:41;98169.59;;;13.08;100.00
54389;BME280;40975;50.390;8.640;2022-11-04T10:44:19;98167.78;;;13.82;100.00
54389;BME280;40975;50.390;8.640;2022-11-04T10:46:58;98162.38;;;15.44;100.00
54389;BME280;40975;50.390;8.640;2022-11-04T10:52:32;98168.28;;;16.48;91.69
54389;BME280;40975;50.390;8.640;2022-11-04T10:54:59;98166.19;;;16.57;85.80
54389;BME280;40975;50.390;8.640;2022-11-04T10:57:26;98163.34;;;16.25;86.58
54389;BME280;40975;50.390;8.640;2022-11-04T11:00:00;98158.94;;;15.64;90.27
54389;BME280;40975;50.390;8.640;2022-11-04T11:02:43;98156.19;;;15.30;89.97
54389;BME280;40975;50.390;8.640;2022-11-04T11:07:41;98156.50;;;15.82;86.48
54389;BME280;40975;50.390;8.640;2022-11-04T11:16:17;98157.53;;;13.64;98.73
54389;BME280;40975;50.390;8.640;2022-11-04T11:18:43;98152.56;;;13.39;99.06
54389;BME280;40975;50.390;8.640;2022-11-04T11:21:13;98154.66;;;13.29;100.00
54389;BME280;40975;50.390;8.640;2022-11-04T11:23:45;98159.72;;;13.38;100.00
54389;BME280;40975;50.390;8.640;2022-11-04T11:26:20;98153.72;;;13.73;98.63
54389;BME280;40975;50.390;8.640;2022-11-04T11:28:54;98148.84;;;13.77;96.90
54389;BME280;40975;50.390;8.640;2022-11-04T11:31:22;98155.69;;;13.86;95.60
54389;BME280;40975;50.390;8.640;2022-11-04T11:33:55;98151.28;;;14.00;93.91
54389;BME280;40975;50.390;8.640;2022-11-04T11:36:27;98147.38;;;13.96;92.89
54389;BME280;40975;50.390;8.640;2022-11-04T11:39:21;98157.63;;;14.21;92.94
54389;BME280;40975;50.390;8.640;2022-11-04T11:41:57;98158.03;;;13.96;90.15
54389;BME280;40975;50.390;8.640;2022-11-04T11:44:36;98150.91;;;14.03;96.99
54389;BME280;40975;50.390;8.640;2022-11-04T11:47:40;98161.47;;;13.90;94.52
54389;BME280;40975;50.390;8.640;2022-11-04T11:50:24;98164.13;;;13.68;94.68
54389;BME280;40975;50.390;8.640;2022-11-04T11:53:13;98161.41;;;13.61;96.05
54389;BME280;40975;50.390;8.640;2022-11-04T11:55:42;98160.41;;;13.62;96.53
54389;BME280;40975;50.390;8.640;2022-11-04T11:58:18;98164.59;;;13.35;93.23
54389;BME280;40975;50.390;8.640;2022-11-04T12:01:07;98163.66;;;13.28;94.64
54389;BME280;40975;50.390;8.640;2022-11-04T12:03:53;98161.69;;;13.15;96.81
54389;BME280;40975;50.390;8.640;2022-11-04T12:06:42;98157.22;;;12.85;97.44
54389;BME280;40975;50.390;8.640;2022-11-04T12:09:29;98156.94;;;12.65;98.04
54389;BME280;40975;50.390;8.640;2022-11-04T12:12:02;98154.03;;;12.60;97.99
54389;BME280;40975;50.390;8.640;2022-11-04T12:14:48;98156.41;;;12.55;100.00
54389;BME280;40975;50.390;8.640;2022-11-04T12:17:30;98163.22;;;12.57;100.00
54389;BME280;40975;50.390;8.640;2022-11-04T12:20:16;98159.59;;;12.50;100.00
54389;BME280;40975;50.390;8.640;2022-11-04T12:23:16;98161.34;;;12.43;100.00
54389;BME280;40975;50.390;8.640;2022-11-04T12:31:37;98153.53;;;12.26;100.00
54389;BME280;40975;50.390;8.640;2022-11-04T12:34:27;98151.53;;;12.43;100.00
54389;BME280;40975;50.390;8.640;2022-11-04T12:42:29;98152.53;;;12.27;99.41
54389;BME280;40975;50.390;8.640;2022-11-04T12:45:14;98149.63;;;12.52;100.00
54389;BME280;40975;50.390;8.640;2022-11-04T12:47:45;98148.88;;;12.58;99.88
54389;BME280;40975;50.390;8.640;2022-11-04T12:56:38;98147.16;;;12.66;100.00
54389;BME280;40975;50.390;8.640;2022-11-04T12:59:33;98152.47;;;12.51;98.07
54389;BME280;40975;50.390;8.640;2022-11-04T13:04:45;98153.63;;;12.33;100.00
54389;BME280;40975;50.390;8.640;2022-11-04T13:07:17;98161.56;;;12.18;100.00
54389;BME280;40975;50.390;8.640;2022-11-04T13:09:50;98158.34;;;12.08;100.00
54389;BME280;40975;50.390;8.640;2022-11-04T13:12:23;98164.63;;;11.92;100.00
54389;BME280;40975;50.390;8.640;2022-11-04T13:14:57;98163.50;;;11.86;100.00
54389;BME280;40975;50.390;8.640;2022-11-04T13:17:31;98174.94;;;11.87;100.00
54389;BME280;40975;50.390;8.640;2022-11-04T13:20:02;98178.44;;;11.87;100.00
54389;BME280;40975;50.390;8.640;2022-11-04T13:22:31;98173.94;;;11.88;100.00
54389;BME280;40975;50.390;8.640;2022-11-04T13:27:48;98183.66;;;12.04;100.00
54389;BME280;40975;50.390;8.640;2022-11-04T13:30:20;98186.72;;;12.16;100.00
54389;BME280;40975;50.390;8.640;2022-11-04T13:35:43;98191.59;;;12.27;100.00
54389;BME280;40975;50.390;8.640;2022-11-04T13:38:42;98194.56;;;12.32;100.00
54389;BME280;40975;50.390;8.640;2022-11-04T13:43:59;98205.13;;;11.94;100.00
54389;BME280;40975;50.390;8.640;2022-11-04T13:46:29;98214.00;;;11.86;100.00
54389;BME280;40975;50.390;8.640;2022-11-04T13:49:22;98219.34;;;11.78;100.00
54389;BME280;40975;50.390;8.640;2022-11-04T13:52:03;98215.94;;;11.69;100.00
54389;BME280;40975;50.390;8.640;2022-11-04T14:00:18;98235.88;;;11.65;100.00
54389;BME280;40975;50.390;8.640;2022-11-04T14:02:45;98238.25;;;11.60;100.00
54389;BME280;40975;50.390;8.640;2022-11-04T14:18:48;98258.31;;;11.31;100.00
54389;BME280;40975;50.390;8.640;2022-11-04T14:23:46;98263.16;;;11.19;100.00
54389;BME280;40975;50.390;8.640;2022-11-04T14:26:14;98274.66;;;11.11;100.00
54389;BME280;40975;50.390;8.640;2022-11-04T14:28:43;98277.31;;;11.11;100.00
54389;BME280;40975;50.390;8.640;2022-11-04T14:31:12;98280.81;;;11.03;100.00
54389;BME280;40975;50.390;8.640;2022-11-04T14:36:29;98284.16;;;10.97;100.00
54389;BME280;40975;50.390;8.640;2022-11-04T14:39:18;98292.63;;;10.93;100.00
54389;BME280;40975;50.390;8.640;2022-11-04T14:42:02;98293.28;;;10.86;100.00
54389;BME280;40975;50.390;8.640;2022-11-04T14:44:41;98295.16;;;10.78;100.00
54389;BME280;40975;50.390;8.640;2022-11-04T14:47:28;98297.97;;;10.68;100.00
54389;BME280;40975;50.390;8.640;2022-11-04T14:52:26;98308.09;;;10.64;100.00
54389;BME280;40975;50.390;8.640;2022-11-04T14:55:02;98314.06;;;10.58;100.00
54389;BME280;40975;50.390;8.640;2022-11-04T14:57:41;98318.22;;;10.61;100.00
54389;BME280;40975;50.390;8.640;2022-11-04T15:00:27;98322.19;;;10.48;100.00
54389;BME280;40975;50.390;8.640;2022-11-04T15:05:31;98324.47;;;10.26;100.00
54389;BME280;40975;50.390;8.640;2022-11-04T15:10:48;98327.78;;;10.12;100.00